createdAt,value
2023-08-14T00:00:00.728Z,21.02
2023-08-14T00:05:00.687Z,21.02
2023-08-14T00:10:00.647Z,21.02
2023-08-14T00:15:00.703Z,20.77
2023-08-14T00:20:00.688Z,20.77
2023-08-14T00:25:00.687Z,20.77
2023-08-14T00:30:00.657Z,20.77
2023-08-14T00:35:00.703Z,20.77
2023-08-14T00:40:00.672Z,20.77
2023-08-14T00:45:00.662Z,20.84
2023-08-14T00:50:00.675Z,20.84
2023-08-14T00:55:00.657Z,20.84
2023-08-14T01:00:00.680Z,20.84
2023-08-14T01:05:00.670Z,20.62
2023-08-14T01:10:00.666Z,20.62
2023-08-14T01:15:00.645Z,20.62
2023-08-14T01:20:00.654Z,20.62
2023-08-14T01:25:00.705Z,20.62
2023-08-14T01:30:00.794Z,20.62
2023-08-14T01:35:00.648Z,20.49
2023-08-14T01:40:00.646Z,20.49
2023-08-14T01:45:00.668Z,20.49
2023-08-14T01:50:00.691Z,20.49
2023-08-14T01:55:00.694Z,20.49
2023-08-14T02:00:00.746Z,20.49
2023-08-14T02:05:00.700Z,20.4
2023-08-14T02:10:00.665Z,20.18
2023-08-14T02:15:00.659Z,20.18
2023-08-14T02:20:00.656Z,19.94
2023-08-14T02:25:00.673Z,19.71
2023-08-14T02:30:00.716Z,19.71
2023-08-14T02:35:00.706Z,19.71
2023-08-14T02:40:00.762Z,19.71
2023-08-14T02:45:00.706Z,19.46
2023-08-14T02:50:00.703Z,19.46
2023-08-14T02:55:00.654Z,19.22
2023-08-14T03:00:00.689Z,19.22
2023-08-14T03:05:00.709Z,19.22
2023-08-14T03:10:00.668Z,19.01
2023-08-14T03:15:00.818Z,18.79
2023-08-14T03:20:00.843Z,18.79
2023-08-14T03:25:00.674Z,18.79
2023-08-14T03:30:00.659Z,18.79
2023-08-14T03:35:00.674Z,18.79
2023-08-14T03:40:00.721Z,18.79
2023-08-14T03:45:00.701Z,18.66
2023-08-14T03:50:00.703Z,18.66
2023-08-14T03:55:00.789Z,18.66
2023-08-14T04:00:00.670Z,18.45
2023-08-14T04:05:00.685Z,18.45
2023-08-14T04:10:00.669Z,18.45
2023-08-14T04:15:00.692Z,18.66
2023-08-14T04:20:00.648Z,18.66
2023-08-14T04:25:00.689Z,18.91
2023-08-14T04:30:00.649Z,18.91
2023-08-14T04:35:00.693Z,19.19
2023-08-14T04:40:00.689Z,19.19
2023-08-14T04:45:00.654Z,19.19
2023-08-14T04:50:00.733Z,19.4
2023-08-14T04:55:00.689Z,19.4
2023-08-14T05:00:00.854Z,19.62
2023-08-14T05:05:00.961Z,19.62
2023-08-14T05:10:00.725Z,19.62
2023-08-14T05:15:00.723Z,19.84
2023-08-14T05:20:00.661Z,20.08
2023-08-14T05:25:00.657Z,20.08
2023-08-14T05:30:00.725Z,20.3
2023-08-14T05:35:00.706Z,20.59
2023-08-14T05:40:00.676Z,20.59
2023-08-14T05:45:00.665Z,20.59
2023-08-14T05:50:01.919Z,20.59
2023-08-14T05:55:01.160Z,20.81
2023-08-14T06:00:00.696Z,20.81
2023-08-14T06:05:00.741Z,21.04
2023-08-14T06:10:00.664Z,21.04
2023-08-14T06:15:00.703Z,21.26
2023-08-14T06:20:00.653Z,21.26
2023-08-14T06:25:00.635Z,21.68
2023-08-14T06:30:00.692Z,21.93
2023-08-14T06:35:00.675Z,22.14
2023-08-14T06:40:00.700Z,22.35
2023-08-14T06:45:00.664Z,22.62
2023-08-14T06:50:00.759Z,23.16
2023-08-14T06:55:00.654Z,23.16
2023-08-14T07:00:00.662Z,23.38
2023-08-14T07:05:00.701Z,23.62
2023-08-14T07:10:00.644Z,23.83
2023-08-14T07:15:00.670Z,24.04
2023-08-14T07:20:00.704Z,24.04
2023-08-14T07:25:00.694Z,24.04
2023-08-14T07:30:00.669Z,24.34
2023-08-14T07:35:00.657Z,24.77
2023-08-14T07:40:00.706Z,24.99
2023-08-14T07:45:00.633Z,25.2
2023-08-14T07:50:00.705Z,25.43
2023-08-14T07:55:00.669Z,25.68
2023-08-14T08:00:00.708Z,25.89
2023-08-14T08:05:00.650Z,26.1
2023-08-14T08:10:00.645Z,26.35
2023-08-14T08:15:00.678Z,26.35
2023-08-14T08:20:00.797Z,26.79
2023-08-14T08:25:00.689Z,27
2023-08-14T08:30:00.655Z,27.23
2023-08-14T08:35:00.692Z,27.66
2023-08-14T08:40:00.683Z,27.87
2023-08-14T08:45:00.654Z,28.13
2023-08-14T08:50:00.708Z,28.13
2023-08-14T08:55:00.641Z,28.45
2023-08-14T09:00:00.658Z,28.67
2023-08-14T09:05:00.806Z,28.9
2023-08-14T09:10:00.668Z,29.15
2023-08-14T09:15:00.667Z,29.15
2023-08-14T09:20:19.535Z,28.94
2023-08-14T09:25:01.069Z,28.94
2023-08-14T09:30:00.683Z,28.94
2023-08-14T09:35:00.713Z,28.68
2023-08-14T09:40:00.786Z,29.36
2023-08-14T09:45:00.655Z,30.21
2023-08-14T09:50:00.719Z,31.15
2023-08-14T09:55:12.028Z,31.84
2023-08-14T10:00:00.702Z,32.11
2023-08-14T10:05:00.655Z,32.66
2023-08-14T10:10:00.672Z,32.9
2023-08-14T10:15:03.536Z,33.34
2023-08-14T10:20:00.702Z,33.34
2023-08-14T10:25:00.657Z,33.13
2023-08-14T10:30:00.682Z,33.81
2023-08-14T10:35:00.676Z,33.13
2023-08-14T10:40:00.665Z,32.42
2023-08-14T10:45:00.663Z,31.91
2023-08-14T10:50:00.710Z,31.35
2023-08-14T10:55:00.727Z,30.84
2023-08-14T11:00:00.716Z,30.35
2023-08-14T11:05:00.690Z,30.11
2023-08-14T11:10:05.346Z,29.58
2023-08-14T11:15:00.735Z,29.58
2023-08-14T11:20:00.686Z,29.34
2023-08-14T11:25:00.683Z,29.34
2023-08-14T11:30:15.043Z,29.11
2023-08-14T11:35:00.666Z,28.86
2023-08-14T11:40:00.663Z,28.86
2023-08-14T11:45:00.830Z,28.64
2023-08-14T11:50:00.696Z,28.64
2023-08-14T11:55:00.897Z,28.64
2023-08-14T12:00:00.494Z,28.64
2023-08-14T12:05:00.644Z,28.64
2023-08-14T12:10:00.483Z,28.64
2023-08-14T12:15:00.533Z,28.64
2023-08-14T12:20:00.493Z,28.87
2023-08-14T12:25:00.496Z,28.87
2023-08-14T12:30:00.814Z,29.09
2023-08-14T12:35:00.533Z,29.61
2023-08-14T12:40:00.502Z,30.55
2023-08-14T12:45:00.510Z,30.76
2023-08-14T12:50:00.476Z,31.54
2023-08-14T12:55:06.487Z,32
2023-08-14T13:00:00.672Z,32.01
2023-08-14T13:05:00.744Z,32.95
2023-08-14T13:10:00.520Z,33.47
2023-08-14T13:15:00.531Z,33.44
2023-08-14T13:20:00.464Z,33.44
2023-08-14T13:25:00.543Z,33.23
2023-08-14T13:30:00.502Z,33.74
2023-08-14T13:35:00.468Z,34.18
2023-08-14T13:40:04.477Z,33.89
2023-08-14T13:45:19.178Z,34.1
2023-08-14T13:50:00.485Z,34.1
2023-08-14T13:55:00.492Z,34.33
2023-08-14T14:00:00.593Z,34.07
2023-08-14T14:05:00.468Z,34.29
2023-08-14T14:10:00.469Z,34.53
2023-08-14T14:15:00.502Z,34.77
2023-08-14T14:20:00.477Z,35.02
2023-08-14T14:25:00.496Z,35.25
2023-08-14T14:30:00.460Z,35.47
2023-08-14T14:35:00.481Z,35.47
2023-08-14T14:40:00.558Z,35.47
2023-08-14T14:45:00.537Z,35.9
2023-08-14T14:50:00.476Z,35.9
2023-08-14T14:55:00.990Z,35.61
2023-08-14T15:00:00.537Z,35.82
2023-08-14T15:05:08.724Z,35.82
2023-08-14T15:10:00.475Z,36.28
2023-08-14T15:15:00.527Z,36.28
2023-08-14T15:20:00.520Z,36.5
2023-08-14T15:25:00.490Z,36.73
2023-08-14T15:30:00.511Z,36.73
2023-08-14T15:35:00.473Z,36.78
2023-08-14T15:40:00.487Z,35.78
2023-08-14T15:45:01.376Z,35.56
2023-08-14T15:50:00.468Z,36
2023-08-14T15:55:00.466Z,36.21
2023-08-14T16:00:00.488Z,36.21
2023-08-14T16:05:00.493Z,36.21
2023-08-14T16:10:00.493Z,36.42
2023-08-14T16:15:01.454Z,36.21
2023-08-14T16:20:00.486Z,36.19
2023-08-14T16:25:00.501Z,35.97
2023-08-14T16:30:00.493Z,35.97
2023-08-14T16:35:00.477Z,35.74
2023-08-14T16:40:00.457Z,35.5
2023-08-14T16:45:00.483Z,35.04
2023-08-14T16:50:00.479Z,34.82
2023-08-14T16:55:00.504Z,34.58
2023-08-14T17:00:00.514Z,34.26
2023-08-14T17:05:00.550Z,34.26
2023-08-14T17:10:00.480Z,34.04
2023-08-14T17:15:00.566Z,33.49
2023-08-14T17:20:00.527Z,32.76
2023-08-14T17:25:00.482Z,32.33
2023-08-14T17:30:00.501Z,31.66
2023-08-14T17:35:00.477Z,30.94
2023-08-14T17:40:00.496Z,29.95
2023-08-14T17:45:00.544Z,28.9
2023-08-14T17:50:00.651Z,27.99
2023-08-14T17:55:00.514Z,27.56
2023-08-14T18:00:00.561Z,27.11
2023-08-14T18:05:00.640Z,26.66
2023-08-14T18:10:00.579Z,26.38
2023-08-14T18:15:00.562Z,26.17
2023-08-14T18:20:00.590Z,26.17
2023-08-14T18:25:01.390Z,25.95
2023-08-14T18:30:00.490Z,25.73
2023-08-14T18:35:00.489Z,25.73
2023-08-14T18:40:00.526Z,25.73
2023-08-14T18:45:00.499Z,25.51
2023-08-14T18:50:01.344Z,25.51
2023-08-14T18:55:00.522Z,25.51
2023-08-14T19:00:00.512Z,25.29
2023-08-14T19:05:00.500Z,25.29
2023-08-14T19:10:00.451Z,25.29
2023-08-14T19:15:00.491Z,25.06
2023-08-14T19:20:00.496Z,25.06
2023-08-14T19:25:00.592Z,24.83
2023-08-14T19:30:00.640Z,24.83
2023-08-14T19:35:00.497Z,24.62
2023-08-14T19:40:00.515Z,24.41
2023-08-14T19:45:00.504Z,24.41
2023-08-14T19:50:00.581Z,24.18
2023-08-14T19:55:00.538Z,23.96
2023-08-14T20:00:00.527Z,23.72
2023-08-14T20:05:00.472Z,23.72
2023-08-14T20:10:00.491Z,23.48
2023-08-14T20:15:00.544Z,23.48
2023-08-14T20:20:00.510Z,23.48
2023-08-14T20:25:00.548Z,23.21
2023-08-14T20:30:00.490Z,23.21
2023-08-14T20:35:00.473Z,22.98
2023-08-14T20:40:00.551Z,22.98
2023-08-14T20:45:00.465Z,22.98
2023-08-14T20:50:00.496Z,22.77
2023-08-14T20:55:00.746Z,22.77
2023-08-14T21:00:00.463Z,22.77
2023-08-14T21:05:00.642Z,22.77
2023-08-14T21:10:00.495Z,22.77
2023-08-14T21:15:00.558Z,22.77
2023-08-14T21:20:00.533Z,22.83
2023-08-14T21:25:00.463Z,22.83
2023-08-14T21:30:00.562Z,22.62
2023-08-14T21:35:00.526Z,22.62
2023-08-14T21:40:00.524Z,22.83
2023-08-14T21:45:00.467Z,22.83
2023-08-14T21:50:00.532Z,22.59
2023-08-14T21:55:00.553Z,22.59
2023-08-14T22:00:00.603Z,22.83
2023-08-14T22:05:00.497Z,22.59
2023-08-14T22:10:00.450Z,22.8
2023-08-14T22:15:00.507Z,22.8
2023-08-14T22:20:00.539Z,22.8
2023-08-14T22:25:00.567Z,23.06
2023-08-14T22:30:00.511Z,23.06
2023-08-14T22:35:00.564Z,23.06
2023-08-14T22:40:00.558Z,23.06
2023-08-14T22:45:00.547Z,23.06
2023-08-14T22:50:00.527Z,22.81
2023-08-14T22:55:00.534Z,22.81
2023-08-14T23:00:00.556Z,22.81
2023-08-14T23:05:00.503Z,22.81
2023-08-14T23:10:00.481Z,22.59
2023-08-14T23:15:00.529Z,22.59
2023-08-14T23:20:00.473Z,22.8
2023-08-14T23:25:00.484Z,23.06
2023-08-14T23:30:00.570Z,23.31
2023-08-14T23:35:00.541Z,23.31
2023-08-14T23:40:00.474Z,23.31
2023-08-14T23:45:00.620Z,23.53
2023-08-14T23:50:00.638Z,23.53
2023-08-14T23:55:00.723Z,23.78
